createdAt,value
2019-05-20T00:01:20.101Z,59.60
2019-05-20T00:02:55.622Z,59.80
2019-05-20T00:04:31.883Z,59.60
2019-05-20T00:06:07.610Z,59.70
2019-05-20T00:07:43.968Z,59.80
2019-05-20T00:09:19.497Z,59.80
2019-05-20T00:10:55.748Z,60.00
2019-05-20T00:12:31.275Z,60.00
2019-05-20T00:14:08.659Z,60.20
2019-05-20T00:15:44.182Z,60.50
2019-05-20T00:17:20.474Z,60.60
2019-05-20T00:18:56.281Z,60.70
2019-05-20T00:20:32.860Z,60.80
2019-05-20T00:22:08.700Z,60.70
2019-05-20T00:23:44.958Z,60.80
2019-05-20T00:25:20.468Z,60.20
2019-05-20T00:26:56.724Z,60.80
2019-05-20T00:28:32.498Z,60.40
2019-05-20T00:30:10.445Z,60.20
2019-05-20T00:31:45.965Z,60.10
2019-05-20T00:33:22.221Z,59.90
2019-05-20T00:34:58.020Z,60.00
2019-05-20T00:36:34.268Z,60.00
2019-05-20T00:38:09.781Z,59.90
2019-05-20T00:39:46.055Z,59.80
2019-05-20T00:41:21.567Z,59.80
2019-05-20T00:42:57.829Z,59.90
2019-05-20T00:44:33.357Z,59.90
2019-05-20T00:46:10.082Z,59.90
2019-05-20T00:47:45.603Z,59.80
2019-05-20T00:49:21.869Z,59.60
2019-05-20T00:50:57.452Z,59.60
2019-05-20T00:52:33.708Z,59.60
2019-05-20T00:54:09.408Z,59.60
2019-05-20T00:55:45.934Z,59.40
2019-05-20T00:57:21.702Z,59.40
2019-05-20T00:58:58.244Z,59.50
2019-05-20T01:00:34.175Z,59.40
2019-05-20T01:02:10.476Z,59.50
2019-05-20T01:03:45.993Z,59.40
2019-05-20T01:05:22.333Z,59.50
2019-05-20T01:06:57.848Z,59.50
2019-05-20T01:08:34.100Z,59.30
2019-05-20T01:10:09.615Z,59.40
2019-05-20T01:11:45.871Z,59.20
2019-05-20T01:13:21.385Z,59.10
2019-05-20T01:14:57.652Z,58.90
2019-05-20T01:16:33.240Z,59.00
2019-05-20T01:18:10.745Z,58.90
2019-05-20T01:19:46.271Z,59.10
2019-05-20T01:21:24.243Z,59.00
2019-05-20T01:22:59.768Z,59.10
2019-05-20T01:24:36.044Z,59.00
2019-05-20T01:26:11.542Z,58.90
2019-05-20T01:27:48.139Z,59.00
2019-05-20T01:29:23.662Z,59.10
2019-05-20T01:30:59.902Z,59.20
2019-05-20T01:32:35.429Z,59.30
2019-05-20T01:34:12.648Z,59.40
2019-05-20T01:35:48.182Z,59.40
2019-05-20T01:37:24.758Z,59.60
2019-05-20T01:39:00.264Z,59.80
2019-05-20T01:40:36.519Z,59.70
2019-05-20T01:42:12.188Z,59.80
2019-05-20T01:43:48.440Z,60.70
2019-05-20T01:45:23.964Z,60.00
2019-05-20T01:47:00.227Z,60.00
2019-05-20T01:48:35.750Z,59.90
2019-05-20T01:50:13.184Z,59.80
2019-05-20T01:51:48.691Z,60.00
2019-05-20T01:53:25.273Z,60.20
2019-05-20T01:55:00.803Z,59.80
2019-05-20T01:56:37.053Z,59.90
2019-05-20T01:58:13.002Z,60.00
2019-05-20T01:59:49.269Z,60.20
2019-05-20T02:01:24.779Z,60.00
2019-05-20T02:03:01.031Z,60.00
2019-05-20T02:04:36.561Z,60.00
2019-05-20T02:06:13.804Z,60.00
2019-05-20T02:07:49.324Z,60.10
2019-05-20T02:09:25.585Z,60.10
2019-05-20T02:11:01.095Z,60.20
2019-05-20T02:12:37.356Z,60.30
2019-05-20T02:14:31.156Z,60.30
2019-05-20T02:16:08.316Z,60.40
2019-05-20T02:17:44.569Z,60.50
2019-05-20T02:19:20.076Z,60.50
2019-05-20T02:20:56.347Z,60.50
2019-05-20T02:22:33.036Z,60.50
2019-05-20T02:24:09.292Z,60.50
2019-05-20T02:25:49.837Z,60.60
2019-05-20T02:27:26.108Z,60.60
2019-05-20T02:29:01.614Z,60.50
2019-05-20T02:30:38.946Z,60.40
2019-05-20T02:32:14.452Z,60.50
2019-05-20T02:33:52.912Z,60.50
2019-05-20T02:35:27.923Z,60.50
2019-05-20T02:37:04.171Z,60.40
2019-05-20T02:38:39.695Z,60.50
2019-05-20T02:40:16.178Z,60.70
2019-05-20T02:41:52.006Z,60.60
2019-05-20T02:43:28.261Z,60.80
2019-05-20T02:45:07.866Z,60.70
2019-05-20T02:46:44.131Z,61.40
2019-05-20T02:48:19.653Z,60.60
2019-05-20T02:49:55.913Z,60.80
2019-05-20T02:51:31.435Z,61.00
2019-05-20T02:53:07.673Z,60.90
2019-05-20T02:54:43.206Z,60.90
2019-05-20T02:56:19.461Z,61.10
2019-05-20T02:57:56.201Z,61.40
2019-05-20T02:59:32.461Z,61.40
2019-05-20T03:01:07.989Z,61.30
2019-05-20T03:02:44.247Z,61.30
2019-05-20T03:04:20.107Z,61.30
2019-05-20T03:05:56.449Z,61.30
2019-05-20T03:07:32.311Z,61.40
2019-05-20T03:09:12.139Z,61.50
2019-05-20T03:10:45.979Z,61.70
2019-05-20T03:12:23.281Z,61.90
2019-05-20T03:13:58.795Z,61.90
2019-05-20T03:15:35.064Z,62.10
2019-05-20T03:17:10.617Z,62.20
2019-05-20T03:18:46.869Z,62.90
2019-05-20T03:20:22.550Z,62.30
2019-05-20T03:21:58.808Z,62.80
2019-05-20T03:23:34.328Z,62.40
2019-05-20T03:25:11.024Z,62.60
2019-05-20T03:26:46.625Z,62.60
2019-05-20T03:28:23.446Z,62.90
2019-05-20T03:29:58.970Z,62.90
2019-05-20T03:31:35.549Z,63.00
2019-05-20T03:33:11.055Z,62.90
2019-05-20T03:34:57.941Z,63.00
2019-05-20T03:36:24.835Z,63.00
2019-05-20T03:38:01.088Z,63.10
2019-05-20T03:39:36.594Z,63.30
2019-05-20T03:41:12.848Z,63.40
2019-05-20T03:42:48.360Z,63.50
2019-05-20T03:44:24.617Z,63.60
2019-05-20T03:46:00.122Z,63.50
2019-05-20T03:47:36.390Z,63.70
2019-05-20T03:49:11.883Z,63.80
2019-05-20T03:50:48.137Z,63.90
2019-05-20T03:52:23.670Z,63.80
2019-05-20T03:53:59.911Z,63.90
2019-05-20T03:55:35.436Z,63.90
2019-05-20T03:57:11.703Z,63.90
2019-05-20T03:58:47.216Z,63.90
2019-05-20T04:00:30.522Z,63.90
2019-05-20T04:02:06.776Z,63.90
2019-05-20T04:03:42.322Z,63.90
2019-05-20T04:05:18.551Z,63.90
2019-05-20T04:06:54.080Z,63.90
2019-05-20T04:08:30.342Z,63.90
2019-05-20T04:10:07.758Z,63.90
2019-05-20T04:11:44.275Z,63.90
2019-05-20T04:13:19.791Z,63.90
2019-05-20T04:14:56.054Z,63.80
2019-05-20T04:16:31.843Z,63.70
2019-05-20T04:18:08.167Z,63.60
2019-05-20T04:19:44.197Z,63.60
2019-05-20T04:21:20.458Z,63.70
2019-05-20T04:22:56.247Z,63.80
2019-05-20T04:24:32.537Z,64.00
2019-05-20T04:26:08.088Z,64.10
2019-05-20T04:27:45.319Z,64.10
2019-05-20T04:29:21.097Z,64.00
2019-05-20T04:30:57.858Z,64.00
2019-05-20T04:32:33.390Z,64.00
2019-05-20T04:34:10.008Z,63.90
2019-05-20T04:35:49.492Z,64.10
2019-05-20T04:37:24.323Z,63.70
2019-05-20T04:38:59.862Z,63.70
2019-05-20T04:40:36.093Z,63.40
2019-05-20T04:42:11.648Z,64.20
2019-05-20T04:43:47.970Z,63.00
2019-05-20T04:45:24.192Z,63.10
2019-05-20T04:47:00.499Z,63.10
2019-05-20T04:48:36.070Z,63.00
2019-05-20T04:50:12.592Z,63.00
2019-05-20T04:51:48.117Z,62.80
2019-05-20T04:53:25.090Z,62.70
2019-05-20T04:55:00.844Z,62.60
2019-05-20T04:56:38.193Z,62.40
2019-05-20T04:58:13.726Z,62.20
2019-05-20T04:59:50.056Z,62.10
2019-05-20T05:01:25.577Z,62.10
2019-05-20T05:03:01.849Z,62.10
2019-05-20T05:04:37.376Z,62.10
2019-05-20T05:06:13.628Z,61.90
2019-05-20T05:07:49.146Z,61.60
2019-05-20T05:09:25.407Z,61.50
2019-05-20T05:11:01.004Z,61.40
2019-05-20T05:12:37.408Z,61.20
2019-05-20T05:14:12.953Z,61.10
2019-05-20T05:15:49.284Z,60.90
2019-05-20T05:17:25.285Z,60.50
2019-05-20T05:19:01.870Z,60.40
2019-05-20T05:20:37.462Z,60.10
2019-05-20T05:22:13.712Z,60.00
2019-05-20T05:23:58.892Z,59.80
2019-05-20T05:25:27.458Z,59.70
2019-05-20T05:27:02.971Z,59.50
2019-05-20T05:28:39.224Z,59.30
2019-05-20T05:30:14.821Z,59.20
2019-05-20T05:31:51.143Z,59.50
2019-05-20T05:33:26.677Z,59.70
2019-05-20T05:35:02.930Z,59.70
2019-05-20T05:36:38.506Z,59.70
2019-05-20T05:38:14.795Z,59.60
2019-05-20T05:39:50.374Z,59.50
2019-05-20T05:41:26.707Z,59.60
2019-05-20T05:43:02.263Z,59.40
2019-05-20T05:44:38.511Z,59.30
2019-05-20T05:46:14.037Z,59.30
2019-05-20T05:47:50.301Z,59.30
2019-05-20T05:49:25.860Z,59.20
2019-05-20T05:51:02.121Z,58.90
2019-05-20T05:52:37.657Z,58.60
2019-05-20T05:54:13.949Z,58.20
2019-05-20T05:55:49.530Z,58.00
2019-05-20T05:57:26.597Z,57.80
2019-05-20T05:59:02.823Z,57.60
2019-05-20T06:00:39.111Z,57.50
2019-05-20T06:02:14.644Z,57.40
2019-05-20T06:03:50.913Z,57.40
2019-05-20T06:05:26.436Z,58.10
2019-05-20T06:07:02.719Z,57.60
2019-05-20T06:08:38.285Z,57.50
2019-05-20T06:10:15.376Z,57.00
2019-05-20T06:11:50.907Z,56.30
2019-05-20T06:13:27.689Z,56.60
2019-05-20T06:15:04.376Z,56.40
2019-05-20T06:16:41.815Z,56.40
2019-05-20T06:18:17.380Z,56.20
2019-05-20T06:19:53.655Z,56.20
2019-05-20T06:21:29.165Z,56.20
2019-05-20T06:23:05.445Z,56.20
2019-05-20T06:24:40.977Z,55.20
2019-05-20T06:26:17.238Z,54.30
2019-05-20T06:27:53.102Z,53.10
2019-05-20T06:29:29.372Z,52.40
2019-05-20T06:31:04.964Z,52.20
2019-05-20T06:32:41.482Z,51.80
2019-05-20T06:34:17.007Z,51.70
2019-05-20T06:35:53.368Z,51.40
2019-05-20T06:37:33.273Z,51.00
2019-05-20T06:39:13.552Z,50.30
2019-05-20T06:40:49.128Z,50.00
2019-05-20T06:42:25.651Z,49.70
2019-05-20T06:44:01.240Z,49.80
2019-05-20T06:45:37.499Z,49.60
2019-05-20T06:47:13.032Z,49.50
2019-05-20T06:48:49.569Z,49.40
2019-05-20T06:50:25.134Z,49.20
2019-05-20T06:52:01.479Z,49.30
2019-05-20T06:53:36.993Z,49.20
2019-05-20T06:55:13.472Z,49.60
2019-05-20T06:56:49.215Z,49.80
2019-05-20T06:58:25.511Z,49.90
2019-05-20T07:00:01.055Z,49.60
2019-05-20T07:01:37.393Z,49.50
2019-05-20T07:03:12.918Z,49.70
2019-05-20T07:04:49.202Z,49.60
2019-05-20T07:06:24.721Z,49.50
2019-05-20T07:08:01.604Z,49.60
2019-05-20T07:09:37.452Z,49.50
2019-05-20T07:11:13.729Z,49.50
2019-05-20T07:12:49.245Z,49.40
2019-05-20T07:14:25.591Z,49.20
2019-05-20T07:16:01.111Z,49.20
2019-05-20T07:17:37.690Z,48.90
2019-05-20T07:19:13.222Z,48.90
2019-05-20T07:20:50.645Z,49.10
2019-05-20T07:22:26.154Z,49.00
2019-05-20T07:24:02.427Z,49.10
2019-05-20T07:25:37.939Z,49.00
2019-05-20T07:27:14.562Z,49.20
2019-05-20T07:28:50.083Z,49.20
2019-05-20T07:30:26.423Z,48.70
2019-05-20T07:32:01.934Z,48.40
2019-05-20T07:33:39.197Z,48.30
2019-05-20T07:35:28.844Z,48.30
2019-05-20T07:37:02.673Z,48.30
2019-05-20T07:38:31.846Z,48.10
2019-05-20T07:40:08.455Z,48.10
2019-05-20T07:41:44.025Z,48.50
2019-05-20T07:43:20.283Z,47.70
2019-05-20T07:44:55.851Z,47.70
2019-05-20T07:46:32.901Z,47.50
2019-05-20T07:48:08.758Z,47.50
2019-05-20T07:49:45.153Z,47.20
2019-05-20T07:51:22.199Z,46.90
2019-05-20T07:53:00.626Z,46.50
2019-05-20T07:54:36.084Z,46.00
2019-05-20T07:56:23.914Z,45.70
2019-05-20T07:58:04.874Z,45.50
2019-05-20T07:59:43.452Z,45.30
2019-05-20T08:01:19.725Z,45.20
2019-05-20T08:02:55.254Z,44.80
2019-05-20T08:04:31.573Z,45.00
2019-05-20T08:06:07.249Z,44.80
2019-05-20T08:07:51.781Z,44.70
2019-05-20T08:09:21.044Z,45.40
2019-05-20T08:10:57.290Z,44.70
2019-05-20T08:12:32.819Z,44.70
2019-05-20T08:14:09.075Z,44.50
2019-05-20T08:15:44.600Z,44.10
2019-05-20T08:17:20.852Z,44.00
2019-05-20T08:18:56.369Z,43.90
2019-05-20T08:20:33.887Z,43.70
2019-05-20T08:22:09.449Z,43.30
2019-05-20T08:23:45.737Z,43.20
2019-05-20T08:25:21.331Z,43.20
2019-05-20T08:26:57.576Z,43.20
2019-05-20T08:28:33.835Z,43.00
2019-05-20T08:30:14.172Z,43.00
2019-05-20T08:31:49.378Z,43.40
2019-05-20T08:33:25.953Z,42.80
2019-05-20T08:35:02.050Z,42.60
2019-05-20T08:36:38.318Z,42.70
2019-05-20T08:38:13.875Z,42.70
2019-05-20T08:39:50.352Z,42.80
2019-05-20T08:41:25.899Z,43.10
2019-05-20T08:43:02.143Z,43.30
2019-05-20T08:44:37.685Z,43.40
2019-05-20T08:46:13.992Z,43.40
2019-05-20T08:47:49.532Z,43.50
2019-05-20T08:49:26.046Z,43.60
2019-05-20T08:51:01.518Z,43.60
2019-05-20T08:52:37.850Z,43.80
2019-05-20T08:54:13.369Z,44.00
2019-05-20T08:55:49.657Z,44.30
2019-05-20T08:57:25.176Z,44.40
2019-05-20T08:59:01.416Z,44.50
2019-05-20T09:00:36.932Z,44.70
2019-05-20T09:02:13.220Z,44.90
2019-05-20T09:03:49.042Z,45.20
2019-05-20T09:05:28.109Z,45.50
2019-05-20T09:07:02.595Z,45.60
2019-05-20T09:08:38.864Z,45.70
2019-05-20T09:10:18.154Z,45.70
2019-05-20T09:11:52.763Z,46.40
2019-05-20T09:13:28.474Z,46.00
2019-05-20T09:15:06.558Z,46.20
2019-05-20T09:16:42.077Z,46.20
2019-05-20T09:18:18.323Z,46.20
2019-05-20T09:19:53.845Z,46.40
2019-05-20T09:21:30.098Z,46.40
2019-05-20T09:23:06.621Z,46.50
2019-05-20T09:24:42.929Z,46.50
2019-05-20T09:26:18.502Z,46.70
2019-05-20T09:27:54.758Z,46.70
2019-05-20T09:29:30.407Z,46.80
2019-05-20T09:31:08.002Z,46.90
2019-05-20T09:32:44.090Z,47.00
2019-05-20T09:34:20.368Z,47.00
2019-05-20T09:35:55.952Z,47.40
2019-05-20T09:37:32.171Z,47.30
2019-05-20T09:39:07.830Z,47.50
2019-05-20T09:40:50.977Z,47.60
2019-05-20T09:42:27.250Z,47.60
2019-05-20T09:44:02.825Z,47.80
2019-05-20T09:45:39.651Z,47.80
2019-05-20T09:47:15.162Z,47.90
2019-05-20T09:48:51.434Z,48.00
2019-05-20T09:50:26.928Z,48.10
2019-05-20T09:52:03.533Z,48.10
2019-05-20T09:53:39.054Z,48.10
2019-05-20T09:55:15.764Z,48.90
2019-05-20T09:56:51.280Z,48.40
2019-05-20T09:58:27.532Z,48.50
2019-05-20T10:00:04.424Z,48.50
2019-05-20T10:01:42.261Z,48.70
2019-05-20T10:03:18.741Z,48.70
2019-05-20T10:04:54.995Z,49.00
2019-05-20T10:06:30.528Z,49.30
2019-05-20T10:08:06.958Z,49.50
2019-05-20T10:09:42.779Z,49.60
2019-05-20T10:11:19.124Z,50.00
2019-05-20T10:12:54.683Z,50.20
2019-05-20T10:14:31.229Z,50.30
2019-05-20T10:16:06.743Z,50.40
2019-05-20T10:17:43.676Z,50.50
2019-05-20T10:19:19.199Z,50.70
2019-05-20T10:20:55.748Z,50.90
2019-05-20T10:22:31.270Z,51.20
2019-05-20T10:24:07.931Z,51.00
2019-05-20T10:25:44.525Z,51.10
2019-05-20T10:27:20.790Z,50.90
2019-05-20T10:28:56.304Z,51.50
2019-05-20T10:30:32.568Z,50.90
2019-05-20T10:32:08.102Z,50.80
2019-05-20T10:33:44.365Z,50.80
2019-05-20T10:35:20.414Z,51.00
2019-05-20T10:36:56.742Z,50.70
2019-05-20T10:38:32.280Z,52.00
2019-05-20T10:40:09.859Z,51.30
2019-05-20T10:41:45.377Z,51.30
2019-05-20T10:43:21.636Z,51.20
2019-05-20T10:44:57.547Z,51.20
2019-05-20T10:46:34.894Z,51.40
2019-05-20T10:48:10.391Z,51.30
2019-05-20T10:49:46.659Z,51.50
2019-05-20T10:51:22.181Z,51.50
2019-05-20T10:52:58.456Z,51.40
2019-05-20T10:54:33.971Z,51.60
2019-05-20T10:56:10.321Z,51.60
2019-05-20T10:57:45.860Z,51.60
2019-05-20T10:59:22.123Z,52.10
2019-05-20T11:01:03.258Z,51.30
2019-05-20T11:02:35.614Z,51.30
2019-05-20T11:04:11.124Z,51.20
2019-05-20T11:05:47.405Z,51.20
2019-05-20T11:07:22.925Z,51.30
2019-05-20T11:09:13.188Z,51.30
2019-05-20T11:10:37.671Z,51.30
2019-05-20T11:12:14.955Z,51.30
2019-05-20T11:13:50.464Z,51.40
2019-05-20T11:15:26.733Z,51.40
2019-05-20T11:17:02.279Z,51.60
2019-05-20T11:18:39.486Z,51.60
2019-05-20T11:20:16.921Z,52.10
2019-05-20T11:21:53.183Z,51.50
2019-05-20T11:23:28.723Z,51.50
2019-05-20T11:25:07.581Z,51.50
2019-05-20T11:26:43.933Z,51.50
2019-05-20T11:28:20.969Z,51.70
2019-05-20T11:29:56.820Z,51.50
2019-05-20T11:31:33.062Z,51.70
2019-05-20T11:33:08.590Z,51.80
2019-05-20T11:34:44.841Z,52.20
2019-05-20T11:36:20.363Z,52.60
2019-05-20T11:37:56.698Z,52.70
2019-05-20T11:39:34.126Z,52.60
2019-05-20T11:41:10.164Z,52.00
2019-05-20T11:42:46.770Z,52.20
2019-05-20T11:44:23.047Z,52.50
2019-05-20T11:45:58.863Z,52.80
2019-05-20T11:47:35.140Z,52.90
2019-05-20T11:49:10.655Z,52.80
2019-05-20T11:50:47.756Z,52.70
2019-05-20T11:52:23.359Z,52.90
2019-05-20T11:53:59.715Z,52.70
2019-05-20T11:55:35.250Z,52.70
2019-05-20T11:57:11.844Z,52.80
2019-05-20T11:58:48.339Z,52.90
2019-05-20T12:00:25.685Z,53.00
2019-05-20T12:02:03.889Z,53.10
2019-05-20T12:03:39.121Z,53.40
2019-05-20T12:05:14.992Z,53.50
2019-05-20T12:06:51.246Z,53.40
2019-05-20T12:08:26.768Z,53.70
2019-05-20T12:10:03.020Z,53.60
2019-05-20T12:11:39.543Z,53.90
2019-05-20T12:13:15.790Z,54.10
2019-05-20T12:14:51.301Z,54.60
2019-05-20T12:16:28.024Z,54.40
2019-05-20T12:18:03.550Z,54.30
2019-05-20T12:19:39.803Z,54.30
2019-05-20T12:21:15.319Z,54.20
2019-05-20T12:22:51.588Z,54.30
2019-05-20T12:24:27.083Z,54.50
2019-05-20T12:26:03.421Z,54.50
2019-05-20T12:27:38.926Z,54.90
2019-05-20T12:29:15.191Z,54.80
2019-05-20T12:30:50.708Z,54.90
2019-05-20T12:32:27.203Z,55.00
2019-05-20T12:34:02.965Z,55.00
2019-05-20T12:35:39.255Z,55.00
2019-05-20T12:37:14.774Z,55.00
2019-05-20T12:38:51.050Z,55.20
2019-05-20T12:40:26.563Z,55.50
2019-05-20T12:42:02.854Z,55.10
2019-05-20T12:43:38.376Z,55.60
2019-05-20T12:45:14.870Z,55.20
2019-05-20T12:46:50.776Z,55.20
2019-05-20T12:48:27.049Z,55.10
2019-05-20T12:50:02.571Z,55.50
2019-05-20T12:51:38.836Z,55.50
2019-05-20T12:53:14.664Z,55.70
2019-05-20T12:55:06.115Z,55.90
2019-05-20T12:56:28.482Z,56.10
2019-05-20T12:58:04.740Z,55.70
2019-05-20T12:59:40.273Z,55.70
2019-05-20T13:01:16.524Z,55.90
2019-05-20T13:02:52.070Z,56.30
2019-05-20T13:04:28.341Z,56.50
2019-05-20T13:06:03.921Z,56.70
2019-05-20T13:07:40.183Z,56.80
2019-05-20T13:09:16.034Z,56.80
2019-05-20T13:10:52.564Z,56.60
2019-05-20T13:12:28.077Z,56.30
2019-05-20T13:14:04.344Z,56.20
2019-05-20T13:15:40.206Z,56.30
2019-05-20T13:17:16.464Z,56.20
2019-05-20T13:18:56.076Z,56.70
2019-05-20T13:20:30.015Z,56.40
2019-05-20T13:22:05.536Z,56.40
2019-05-20T13:23:42.065Z,56.20
2019-05-20T13:25:17.718Z,55.90
2019-05-20T13:26:53.978Z,55.70
2019-05-20T13:28:29.486Z,55.60
2019-05-20T13:30:08.846Z,55.40
2019-05-20T13:31:44.360Z,55.20
2019-05-20T13:33:20.876Z,55.50
2019-05-20T13:34:56.414Z,55.20
2019-05-20T13:36:32.661Z,54.70
2019-05-20T13:38:08.186Z,54.30
2019-05-20T13:39:44.460Z,54.30
2019-05-20T13:41:19.980Z,54.70
2019-05-20T13:42:56.244Z,54.90
2019-05-20T13:44:31.771Z,55.40
2019-05-20T13:46:08.022Z,55.70
2019-05-20T13:47:43.541Z,55.70
2019-05-20T13:49:19.861Z,55.70
2019-05-20T13:50:55.334Z,55.90
2019-05-20T13:52:31.594Z,55.90
2019-05-20T13:54:07.118Z,56.00
2019-05-20T13:55:43.372Z,56.20
2019-05-20T13:57:18.895Z,56.60
2019-05-20T13:58:55.167Z,56.90
2019-05-20T14:00:30.686Z,57.10
2019-05-20T14:02:06.960Z,57.20
2019-05-20T14:03:42.772Z,57.80
2019-05-20T14:05:19.216Z,57.80
2019-05-20T14:06:54.728Z,58.00
2019-05-20T14:08:32.264Z,57.90
2019-05-20T14:10:08.497Z,58.10
2019-05-20T14:11:44.754Z,59.10
2019-05-20T14:13:20.281Z,58.50
2019-05-20T14:14:56.545Z,58.80
2019-05-20T14:16:32.072Z,58.90
2019-05-20T14:18:08.328Z,58.80
2019-05-20T14:19:43.863Z,59.00
2019-05-20T14:21:20.125Z,59.80
2019-05-20T14:22:55.900Z,59.00
2019-05-20T14:24:32.173Z,59.70
2019-05-20T14:26:07.684Z,58.90
2019-05-20T14:27:43.953Z,59.10
2019-05-20T14:29:19.808Z,58.80
2019-05-20T14:30:56.061Z,58.60
2019-05-20T14:32:31.581Z,58.80
2019-05-20T14:34:08.533Z,59.00
2019-05-20T14:35:44.176Z,60.00
2019-05-20T14:37:20.774Z,59.50
2019-05-20T14:38:56.314Z,59.40
2019-05-20T14:40:32.579Z,60.00
2019-05-20T14:42:08.091Z,60.10
2019-05-20T14:43:44.364Z,59.50
2019-05-20T14:45:20.035Z,59.10
2019-05-20T14:46:56.688Z,58.80
2019-05-20T14:48:32.207Z,58.80
2019-05-20T14:50:11.755Z,59.10
2019-05-20T14:51:47.596Z,59.20
2019-05-20T14:53:23.849Z,59.60
2019-05-20T14:54:59.697Z,59.40
2019-05-20T14:56:35.933Z,59.70
2019-05-20T14:58:11.707Z,60.40
2019-05-20T14:59:47.991Z,60.70
2019-05-20T15:01:23.506Z,61.10
2019-05-20T15:02:59.838Z,60.80
2019-05-20T15:04:35.355Z,60.70
2019-05-20T15:06:11.619Z,61.20
2019-05-20T15:07:47.127Z,62.10
2019-05-20T15:09:23.378Z,62.40
2019-05-20T15:10:58.906Z,63.30
2019-05-20T15:12:35.149Z,63.50
2019-05-20T15:14:10.924Z,63.80
2019-05-20T15:15:48.521Z,63.90
2019-05-20T15:17:24.320Z,63.80
2019-05-20T15:19:00.560Z,64.20
2019-05-20T15:20:36.082Z,64.40
2019-05-20T15:22:12.331Z,65.00
2019-05-20T15:23:47.851Z,65.00
2019-05-20T15:25:24.144Z,65.00
2019-05-20T15:26:59.766Z,65.20
2019-05-20T15:28:36.143Z,65.20
2019-05-20T15:30:12.354Z,65.30
2019-05-20T15:31:48.604Z,65.60
2019-05-20T15:33:24.130Z,65.60
2019-05-20T15:35:00.443Z,65.80
2019-05-20T15:36:35.974Z,65.90
2019-05-20T15:38:12.224Z,65.90
2019-05-20T15:39:47.735Z,66.30
2019-05-20T15:41:24.091Z,66.80
2019-05-20T15:43:00.113Z,66.40
2019-05-20T15:44:37.353Z,66.50
2019-05-20T15:46:18.837Z,66.60
2019-05-20T15:47:59.858Z,66.30
2019-05-20T15:49:41.556Z,66.30
2019-05-20T15:51:23.393Z,66.50
2019-05-20T15:53:11.862Z,66.30
2019-05-20T15:54:51.496Z,66.30
2019-05-20T15:56:37.887Z,66.50
2019-05-20T15:58:23.693Z,66.40
2019-05-20T16:00:21.676Z,66.10
2019-05-20T16:02:08.476Z,66.10
2019-05-20T16:04:01.893Z,65.90
2019-05-20T16:05:53.866Z,67.10
2019-05-20T16:07:51.935Z,66.60
2019-05-20T16:09:34.086Z,66.50
2019-05-20T16:11:16.482Z,66.70
2019-05-20T16:13:00.208Z,67.00
2019-05-20T16:14:51.446Z,66.80
2019-05-20T16:16:30.950Z,66.60
2019-05-20T16:18:11.713Z,66.60
2019-05-20T16:19:50.014Z,66.50
2019-05-20T16:21:41.748Z,66.40
2019-05-20T16:23:32.421Z,66.50
2019-05-20T16:25:16.701Z,66.50
2019-05-20T16:27:17.579Z,66.40
2019-05-20T16:29:14.571Z,66.80
2019-05-20T16:30:54.472Z,66.50
2019-05-20T16:32:40.607Z,66.60
2019-05-20T16:34:22.212Z,67.50
2019-05-20T16:36:08.360Z,66.80
2019-05-20T16:37:57.172Z,66.90
2019-05-20T16:39:38.688Z,67.10
2019-05-20T16:41:16.286Z,67.50
2019-05-20T16:42:53.461Z,67.40
2019-05-20T16:44:48.723Z,68.10
2019-05-20T16:46:42.131Z,67.60
2019-05-20T16:48:25.042Z,67.40
2019-05-20T16:50:04.882Z,67.50
2019-05-20T16:51:40.886Z,67.50
2019-05-20T16:53:17.162Z,67.80
2019-05-20T16:54:53.019Z,67.80
2019-05-20T16:56:29.289Z,67.60
2019-05-20T16:58:04.817Z,68.50
2019-05-20T16:59:41.069Z,67.50
2019-05-20T17:01:16.575Z,67.90
2019-05-20T17:02:52.834Z,67.20
2019-05-20T17:04:28.340Z,67.10
2019-05-20T17:06:05.604Z,67.20
2019-05-20T17:07:42.206Z,67.10
2019-05-20T17:09:18.497Z,66.90
2019-05-20T17:10:54.017Z,66.80
2019-05-20T17:12:30.327Z,66.60
2019-05-20T17:14:10.433Z,66.50
2019-05-20T17:15:44.803Z,66.40
2019-05-20T17:17:20.354Z,66.40
2019-05-20T17:18:56.614Z,66.50
2019-05-20T17:20:32.131Z,66.40
2019-05-20T17:22:08.381Z,66.40
2019-05-20T17:23:44.868Z,66.60
2019-05-20T17:25:21.380Z,66.60
2019-05-20T17:26:57.268Z,66.90
2019-05-20T17:28:33.500Z,67.00
2019-05-20T17:30:09.450Z,67.00
2019-05-20T17:31:45.783Z,67.00
2019-05-20T17:33:21.629Z,66.90
2019-05-20T17:34:57.947Z,67.00
2019-05-20T17:36:33.595Z,67.10
2019-05-20T17:38:09.998Z,67.10
2019-05-20T17:39:45.833Z,67.20
2019-05-20T17:41:22.082Z,67.10
2019-05-20T17:42:57.618Z,67.00
2019-05-20T17:44:33.875Z,66.80
2019-05-20T17:46:09.714Z,66.80
2019-05-20T17:47:46.058Z,66.60
2019-05-20T17:49:21.845Z,66.90
2019-05-20T17:50:58.125Z,66.90
2019-05-20T17:52:34.054Z,66.70
2019-05-20T17:54:11.611Z,66.60
2019-05-20T17:55:47.254Z,66.50
2019-05-20T17:57:23.540Z,66.40
2019-05-20T17:58:59.052Z,66.50
2019-05-20T18:00:35.307Z,66.60
2019-05-20T18:02:12.330Z,66.50
2019-05-20T18:03:48.588Z,66.30
2019-05-20T18:05:24.398Z,66.30
2019-05-20T18:07:00.654Z,66.20
2019-05-20T18:08:37.838Z,66.90
2019-05-20T18:10:14.536Z,66.30
2019-05-20T18:11:50.051Z,66.50
2019-05-20T18:13:26.317Z,66.60
2019-05-20T18:15:03.553Z,66.50
2019-05-20T18:16:39.797Z,66.70
2019-05-20T18:18:15.941Z,66.50
2019-05-20T18:19:52.483Z,66.70
2019-05-20T18:21:27.985Z,66.70
2019-05-20T18:23:04.240Z,66.80
2019-05-20T18:24:39.769Z,66.90
2019-05-20T18:26:16.019Z,66.90
2019-05-20T18:27:51.571Z,66.80
2019-05-20T18:29:27.892Z,66.90
2019-05-20T18:31:03.404Z,66.60
2019-05-20T18:32:39.740Z,66.60
2019-05-20T18:34:15.276Z,66.70
2019-05-20T18:35:51.544Z,66.70
2019-05-20T18:37:28.026Z,66.80
2019-05-20T18:39:05.838Z,66.70
2019-05-20T18:40:41.341Z,66.70
2019-05-20T18:42:17.603Z,66.60
2019-05-20T18:43:53.123Z,66.60
2019-05-20T18:45:29.400Z,66.70
2019-05-20T18:47:04.980Z,66.60
2019-05-20T18:48:41.273Z,66.60
2019-05-20T18:50:17.762Z,66.80
2019-05-20T18:51:54.009Z,66.90
2019-05-20T18:53:29.835Z,66.70
2019-05-20T18:55:07.949Z,66.70
2019-05-20T18:56:43.467Z,66.70
2019-05-20T18:58:19.728Z,66.60
2019-05-20T18:59:55.250Z,66.60
2019-05-20T19:01:45.760Z,66.70
2019-05-20T19:03:08.769Z,66.80
2019-05-20T19:04:45.062Z,66.80
2019-05-20T19:06:20.574Z,66.80
2019-05-20T19:07:56.828Z,66.80
2019-05-20T19:09:32.356Z,66.90
2019-05-20T19:11:08.756Z,66.90
2019-05-20T19:12:44.305Z,66.90
2019-05-20T19:14:20.641Z,67.00
2019-05-20T19:15:56.189Z,67.20
2019-05-20T19:17:32.625Z,67.10
2019-05-20T19:19:08.132Z,67.00
2019-05-20T19:20:44.386Z,67.00
2019-05-20T19:22:19.910Z,67.20
2019-05-20T19:23:57.156Z,67.10
2019-05-20T19:25:37.745Z,67.00
2019-05-20T19:27:10.618Z,67.10
2019-05-20T19:28:46.145Z,67.20
2019-05-20T19:30:22.402Z,67.30
2019-05-20T19:32:01.699Z,67.20
2019-05-20T19:33:35.869Z,67.90
2019-05-20T19:35:12.519Z,67.30
2019-05-20T19:36:48.974Z,67.40
2019-05-20T19:38:24.533Z,67.40
2019-05-20T19:40:00.811Z,67.50
2019-05-20T19:41:37.953Z,67.60
2019-05-20T19:43:14.210Z,67.70
2019-05-20T19:44:49.808Z,67.90
2019-05-20T19:46:26.065Z,67.80
2019-05-20T19:48:02.767Z,68.20
2019-05-20T19:49:42.301Z,68.10
2019-05-20T19:51:16.222Z,68.30
2019-05-20T19:52:52.814Z,68.30
2019-05-20T19:54:28.799Z,68.50
2019-05-20T19:56:05.076Z,68.50
2019-05-20T19:57:40.588Z,68.70
2019-05-20T19:59:16.834Z,69.00
2019-05-20T20:00:52.369Z,69.30
2019-05-20T20:02:28.689Z,70.30
2019-05-20T20:04:04.276Z,70.30
2019-05-20T20:05:40.546Z,70.80
2019-05-20T20:07:16.133Z,70.70
2019-05-20T20:08:52.394Z,70.80
2019-05-20T20:10:27.924Z,70.80
2019-05-20T20:12:04.174Z,70.60
2019-05-20T20:13:39.688Z,70.70
2019-05-20T20:15:20.441Z,70.80
2019-05-20T20:16:55.972Z,71.10
2019-05-20T20:18:32.236Z,70.70
2019-05-20T20:20:08.103Z,70.80
2019-05-20T20:21:44.351Z,70.80
2019-05-20T20:23:19.876Z,70.80
2019-05-20T20:24:56.115Z,71.00
2019-05-20T20:26:31.684Z,70.90
2019-05-20T20:28:07.933Z,70.90
2019-05-20T20:29:43.449Z,70.90
2019-05-20T20:31:19.709Z,70.80
2019-05-20T20:32:55.228Z,70.80
2019-05-20T20:34:31.562Z,70.80
2019-05-20T20:36:07.084Z,70.90
2019-05-20T20:37:44.289Z,70.90
2019-05-20T20:39:20.106Z,70.70
2019-05-20T20:40:56.459Z,70.70
2019-05-20T20:42:31.968Z,70.60
2019-05-20T20:44:08.226Z,70.60
2019-05-20T20:45:43.756Z,70.50